createdAt,value
2018-01-23T00:00:11.664Z,101026.34
2018-01-23T00:02:40.824Z,101016.56
2018-01-23T00:05:09.405Z,101018.56
2018-01-23T00:07:38.276Z,101027.98
2018-01-23T00:10:07.305Z,101030.56
2018-01-23T00:12:35.846Z,101033.17
2018-01-23T00:15:04.776Z,101040.25
2018-01-23T00:17:33.339Z,101055.91
2018-01-23T00:20:02.177Z,101070.69
2018-01-23T00:22:31.112Z,101084.31
2018-01-23T00:24:59.657Z,101094.77
2018-01-23T00:27:28.598Z,101088.09
2018-01-23T00:29:57.299Z,101111.77
2018-01-23T00:32:26.060Z,101114.41
2018-01-23T00:34:54.912Z,101121.58
2018-01-23T00:37:24.709Z,101120.93
2018-01-23T00:39:53.453Z,101131.48
2018-01-23T00:42:22.204Z,101139.30
2018-01-23T00:44:51.092Z,101142.95
2018-01-23T00:47:19.720Z,101133.16
2018-01-23T00:49:48.500Z,101137.56
2018-01-23T00:52:17.253Z,101118.10
2018-01-23T00:54:46.396Z,101109.71
2018-01-23T00:57:14.981Z,101105.14
2018-01-23T00:59:43.594Z,101105.78
2018-01-23T01:02:19.251Z,101105.88
2018-01-23T01:04:47.930Z,101107.13
2018-01-23T01:07:16.813Z,101116.47
2018-01-23T01:09:45.681Z,101120.80
2018-01-23T01:12:14.380Z,101128.97
2018-01-23T01:14:42.963Z,101130.59
2018-01-23T01:17:11.710Z,101140.72
2018-01-23T01:19:40.819Z,101156.61
2018-01-23T01:22:09.536Z,101165.23
2018-01-23T01:24:38.048Z,101174.58
2018-01-23T01:27:06.760Z,101176.78
2018-01-23T01:29:35.249Z,101186.64
2018-01-23T01:32:03.802Z,101185.03
2018-01-23T01:34:32.363Z,101211.27
2018-01-23T01:37:00.953Z,101218.92
2018-01-23T01:39:29.684Z,101231.59
2018-01-23T01:41:58.414Z,101233.47
2018-01-23T01:44:27.220Z,101233.08
2018-01-23T01:46:55.715Z,101235.68
2018-01-23T01:49:24.451Z,101228.50
2018-01-23T01:51:53.288Z,101219.32
2018-01-23T01:54:21.961Z,101214.89
2018-01-23T01:56:51.081Z,101217.86
2018-01-23T01:59:19.992Z,101208.59
2018-01-23T02:01:48.503Z,101218.48
2018-01-23T02:04:17.214Z,101221.55
2018-01-23T02:06:46.076Z,101228.86
2018-01-23T02:09:14.660Z,101230.45
2018-01-23T02:11:43.287Z,101217.08
2018-01-23T02:14:11.868Z,101222.27
2018-01-23T02:16:40.717Z,101226.85
2018-01-23T02:19:09.232Z,101228.19
2018-01-23T02:21:37.819Z,101241.88
2018-01-23T02:24:06.488Z,101250.36
2018-01-23T02:26:35.039Z,101254.30
2018-01-23T02:29:03.742Z,101254.48
2018-01-23T02:31:32.499Z,101261.03
2018-01-23T02:34:01.028Z,101265.60
2018-01-23T02:36:29.539Z,101272.38
2018-01-23T02:38:58.007Z,101281.52
2018-01-23T02:41:26.822Z,101281.17
2018-01-23T02:43:55.539Z,101288.27
2018-01-23T02:46:24.056Z,101296.75
2018-01-23T02:48:52.709Z,101291.61
2018-01-23T02:51:21.445Z,101298.91
2018-01-23T02:53:50.106Z,101288.23
2018-01-23T02:56:18.713Z,101285.33
2018-01-23T02:58:47.176Z,101287.69
2018-01-23T03:01:16.081Z,101288.81
2018-01-23T03:03:44.896Z,101296.23
2018-01-23T03:06:13.760Z,101300.77
2018-01-23T03:08:42.432Z,101304.56
2018-01-23T03:11:10.975Z,101310.32
2018-01-23T03:13:39.468Z,101302.69
2018-01-23T03:16:08.129Z,101307.89
2018-01-23T03:18:36.797Z,101307.50
2018-01-23T03:21:05.482Z,101318.33
2018-01-23T03:23:34.121Z,101326.45
2018-01-23T03:26:02.892Z,101322.36
2018-01-23T03:28:31.495Z,101321.31
2018-01-23T03:31:00.269Z,101329.11
2018-01-23T03:33:28.963Z,101329.99
2018-01-23T03:35:57.701Z,101332.82
2018-01-23T03:38:26.354Z,101338.89
2018-01-23T03:40:54.944Z,101344.97
2018-01-23T03:43:23.792Z,101342.64
2018-01-23T03:45:52.371Z,101340.58
2018-01-23T03:48:21.137Z,101347.05
2018-01-23T03:50:49.705Z,101351.78
2018-01-23T03:53:18.404Z,101353.05
2018-01-23T03:55:47.160Z,101355.34
2018-01-23T03:58:15.789Z,101359.99
2018-01-23T04:00:44.340Z,101369.25
2018-01-23T04:03:13.159Z,101365.43
2018-01-23T04:05:41.723Z,101366.58
2018-01-23T04:08:10.336Z,101365.31
2018-01-23T04:10:39.083Z,101373.52
2018-01-23T04:13:07.612Z,101373.92
2018-01-23T04:15:36.193Z,101375.63
2018-01-23T04:18:04.810Z,101382.78
2018-01-23T04:20:33.528Z,101391.20
2018-01-23T04:23:02.299Z,101393.06
2018-01-23T04:25:30.952Z,101396.80
2018-01-23T04:27:59.546Z,101402.06
2018-01-23T04:30:28.284Z,101406.42
2018-01-23T04:32:59.698Z,101407.55
2018-01-23T04:35:28.700Z,101418.02
2018-01-23T04:37:57.375Z,101413.41
2018-01-23T04:40:26.174Z,101418.62
2018-01-23T04:42:54.672Z,101428.25
2018-01-23T04:45:23.501Z,101433.89
2018-01-23T04:47:52.297Z,101442.28
2018-01-23T04:50:20.880Z,101450.84
2018-01-23T04:52:49.741Z,101448.82
2018-01-23T04:55:18.465Z,101443.86
2018-01-23T04:57:47.455Z,101448.58
2018-01-23T05:03:12.286Z,101447.34
2018-01-23T05:05:40.730Z,101453.41
2018-01-23T05:08:09.190Z,101459.20
2018-01-23T05:10:37.552Z,101470.34
2018-01-23T05:13:05.931Z,101472.11
2018-01-23T05:15:34.454Z,101475.54
2018-01-23T05:18:02.736Z,101480.58
2018-01-23T05:20:31.638Z,101484.08
2018-01-23T05:23:00.708Z,101493.89
2018-01-23T05:25:29.391Z,101501.17
2018-01-23T05:27:57.876Z,101497.17
2018-01-23T05:30:27.505Z,101499.66
2018-01-23T05:32:58.209Z,101504.56
2018-01-23T05:35:26.564Z,101508.53
2018-01-23T05:37:55.892Z,101505.17
2018-01-23T05:40:24.498Z,101518.25
2018-01-23T05:42:52.801Z,101517.86
2018-01-23T05:45:21.110Z,101523.08
2018-01-23T05:47:49.471Z,101528.61
2018-01-23T05:50:17.770Z,101528.23
2018-01-23T05:52:46.104Z,101529.06
2018-01-23T05:55:14.431Z,101539.09
2018-01-23T05:57:42.735Z,101541.71
2018-01-23T06:00:11.529Z,101535.30
2018-01-23T06:02:39.958Z,101535.48
2018-01-23T06:05:08.253Z,101540.38
2018-01-23T06:07:36.703Z,101550.05
2018-01-23T06:10:05.603Z,101554.33
2018-01-23T06:12:33.887Z,101546.75
2018-01-23T06:15:02.155Z,101561.70
2018-01-23T06:17:30.598Z,101566.22
2018-01-23T06:19:58.894Z,101578.89
2018-01-23T06:22:27.419Z,101579.68
2018-01-23T06:24:55.901Z,101588.52
2018-01-23T06:27:24.233Z,101586.33
2018-01-23T06:29:52.507Z,101588.20
2018-01-23T06:32:20.827Z,101607.17
2018-01-23T06:34:49.203Z,101602.34
2018-01-23T06:37:17.730Z,101598.45
2018-01-23T06:39:46.027Z,101613.91
2018-01-23T06:42:14.406Z,101618.00
2018-01-23T06:44:42.699Z,101626.33
2018-01-23T06:47:11.101Z,101643.23
2018-01-23T06:49:39.363Z,101645.45
2018-01-23T06:52:08.100Z,101644.95
2018-01-23T06:54:36.506Z,101650.96
2018-01-23T06:57:04.856Z,101660.06
2018-01-23T06:59:33.152Z,101657.31
2018-01-23T07:02:01.583Z,101649.81
2018-01-23T07:04:29.964Z,101649.91
2018-01-23T07:06:59.360Z,101654.71
2018-01-23T07:09:27.655Z,101668.73
2018-01-23T07:11:56.119Z,101661.05
2018-01-23T07:14:24.427Z,101665.93
2018-01-23T07:16:52.773Z,101673.30
2018-01-23T07:19:21.083Z,101672.98
2018-01-23T07:21:49.745Z,101664.27
2018-01-23T07:24:18.208Z,101682.36
2018-01-23T07:26:46.536Z,101689.31
2018-01-23T07:29:14.815Z,101692.02
2018-01-23T07:31:43.345Z,101699.49
2018-01-23T07:34:11.612Z,101696.29
2018-01-23T07:36:39.907Z,101703.55
2018-01-23T07:39:09.100Z,101697.11
2018-01-23T07:41:37.511Z,101696.48
2018-01-23T07:44:05.790Z,101697.17
2018-01-23T07:46:34.103Z,101697.67
2018-01-23T07:49:02.434Z,101692.58
2018-01-23T07:51:30.739Z,101694.55
2018-01-23T07:53:59.112Z,101701.34
2018-01-23T07:56:27.552Z,101717.05
2018-01-23T07:58:55.887Z,101721.61
2018-01-23T08:01:24.192Z,101712.66
2018-01-23T08:03:52.486Z,101723.90
2018-01-23T08:06:20.869Z,101723.58
2018-01-23T08:08:49.175Z,101729.73
2018-01-23T08:11:17.572Z,101727.95
2018-01-23T08:13:46.220Z,101733.47
2018-01-23T08:16:14.540Z,101730.47
2018-01-23T08:18:43.044Z,101736.92
2018-01-23T08:21:11.358Z,101740.75
2018-01-23T08:23:39.662Z,101759.05
2018-01-23T08:26:14.795Z,101778.91
2018-01-23T08:28:43.131Z,101770.80
2018-01-23T08:31:11.483Z,101774.23
2018-01-23T08:33:39.774Z,101776.22
2018-01-23T08:36:08.076Z,101771.83
2018-01-23T08:38:36.472Z,101771.09
2018-01-23T08:41:04.799Z,101769.55
2018-01-23T08:43:33.147Z,101774.84
2018-01-23T08:46:01.490Z,101772.78
2018-01-23T08:48:29.938Z,101779.65
2018-01-23T08:50:58.257Z,101777.34
2018-01-23T08:53:26.596Z,101787.64
2018-01-23T08:55:54.959Z,101788.68
2018-01-23T08:58:23.303Z,101794.91
2018-01-23T09:00:51.757Z,101806.91
2018-01-23T09:03:20.180Z,101803.88
2018-01-23T09:05:48.503Z,101803.46
2018-01-23T09:08:16.839Z,101807.94
2018-01-23T09:10:45.242Z,101813.66
2018-01-23T09:13:13.545Z,101813.55
2018-01-23T09:15:41.985Z,101808.97
2018-01-23T09:18:10.276Z,101802.19
2018-01-23T09:20:38.674Z,101802.80
2018-01-23T09:23:06.973Z,101804.44
2018-01-23T09:25:35.543Z,101814.55
2018-01-23T09:28:03.929Z,101815.68
2018-01-23T09:30:32.271Z,101822.17
2018-01-23T09:33:00.741Z,101832.05
2018-01-23T09:35:29.244Z,101848.09
2018-01-23T09:37:57.549Z,101851.84
2018-01-23T09:40:25.867Z,101856.84
2018-01-23T09:42:54.182Z,101857.64
2018-01-23T09:45:22.503Z,101859.64
2018-01-23T09:47:50.807Z,101859.02
2018-01-23T09:50:19.326Z,101857.42
2018-01-23T09:59:37.056Z,101861.91
2018-01-23T10:02:05.368Z,101862.19
2018-01-23T10:04:33.936Z,101866.95
2018-01-23T10:07:02.355Z,101859.95
2018-01-23T10:09:30.816Z,101860.55
2018-01-23T10:11:59.191Z,101860.54
2018-01-23T10:14:27.771Z,101859.20
2018-01-23T10:16:56.155Z,101855.33
2018-01-23T10:19:24.683Z,101861.20
2018-01-23T10:21:53.111Z,101867.69
2018-01-23T10:24:21.567Z,101873.03
2018-01-23T10:26:49.923Z,101868.27
2018-01-23T10:29:19.212Z,101863.23
2018-01-23T10:31:47.672Z,101864.80
2018-01-23T10:34:16.110Z,101866.02
2018-01-23T10:36:44.497Z,101867.78
2018-01-23T10:39:12.843Z,101870.20
2018-01-23T10:41:41.207Z,101881.88
2018-01-23T10:44:09.607Z,101881.14
2018-01-23T10:46:37.999Z,101878.81
2018-01-23T10:49:06.658Z,101877.83
2018-01-23T10:51:35.067Z,101876.81
2018-01-23T10:54:03.372Z,101882.41
2018-01-23T10:56:31.735Z,101875.12
2018-01-23T10:59:00.103Z,101872.56
2018-01-23T11:01:32.674Z,101868.30
2018-01-23T11:04:01.139Z,101859.34
2018-01-23T11:06:29.463Z,101862.60
2018-01-23T11:08:58.083Z,101857.80
2018-01-23T11:11:26.404Z,101851.30
2018-01-23T11:13:54.786Z,101851.31
2018-01-23T11:16:23.184Z,101857.70
2018-01-23T11:18:51.519Z,101854.65
2018-01-23T11:21:20.268Z,101856.18
2018-01-23T11:23:49.833Z,101853.09
2018-01-23T11:26:18.331Z,101854.58
2018-01-23T11:28:46.599Z,101849.86
2018-01-23T11:31:14.956Z,101845.55
2018-01-23T11:33:43.447Z,101850.41
2018-01-23T11:36:11.775Z,101851.17
2018-01-23T11:38:40.145Z,101854.42
2018-01-23T11:41:08.488Z,101855.80
2018-01-23T11:43:37.028Z,101858.09
2018-01-23T11:46:05.362Z,101869.22
2018-01-23T11:48:33.668Z,101869.62
2018-01-23T11:51:01.987Z,101874.49
2018-01-23T11:53:30.315Z,101866.80
2018-01-23T11:55:59.063Z,101866.27
2018-01-23T11:58:27.526Z,101870.73
2018-01-23T12:00:56.018Z,101872.73
2018-01-23T12:03:24.471Z,101879.14
2018-01-23T12:05:52.788Z,101873.41
2018-01-23T12:08:21.067Z,101868.96
2018-01-23T12:10:49.535Z,101873.05
2018-01-23T12:13:17.831Z,101867.52
2018-01-23T12:15:46.239Z,101870.58
2018-01-23T12:18:14.514Z,101877.39
2018-01-23T12:20:43.017Z,101875.91
2018-01-23T12:23:11.300Z,101875.91
2018-01-23T12:25:39.698Z,101877.42
2018-01-23T12:28:08.414Z,101867.87
2018-01-23T12:30:36.795Z,101877.50
2018-01-23T12:33:05.159Z,101869.17
2018-01-23T12:35:34.094Z,101871.22
2018-01-23T12:38:02.498Z,101869.70
2018-01-23T12:40:31.386Z,101864.65
2018-01-23T12:42:59.710Z,101871.42
2018-01-23T12:45:35.009Z,101866.06
2018-01-23T12:48:03.336Z,101863.30
2018-01-23T12:50:31.670Z,101870.31
2018-01-23T12:53:00.071Z,101855.30
2018-01-23T12:55:28.388Z,101857.92
2018-01-23T12:57:56.773Z,101856.25
2018-01-23T13:00:25.087Z,101862.59
2018-01-23T13:02:53.374Z,101857.47
2018-01-23T13:05:21.764Z,101861.52
2018-01-23T13:07:50.107Z,101872.48
2018-01-23T13:10:18.640Z,101869.56
2018-01-23T13:12:46.930Z,101864.44
2018-01-23T13:15:15.367Z,101862.73
2018-01-23T13:17:43.640Z,101872.47
2018-01-23T13:20:11.992Z,101871.31
2018-01-23T13:22:40.304Z,101871.34
2018-01-23T13:25:08.626Z,101877.35
2018-01-23T13:27:36.902Z,101871.64
2018-01-23T13:30:05.425Z,101870.63
2018-01-23T13:32:34.844Z,101868.11
2018-01-23T13:35:03.220Z,101868.69
2018-01-23T13:37:31.963Z,101865.55
2018-01-23T13:40:00.739Z,101858.13
2018-01-23T13:42:29.268Z,101860.86
2018-01-23T13:44:58.707Z,101865.09
2018-01-23T13:47:27.819Z,101867.23
2018-01-23T13:49:56.785Z,101857.92
2018-01-23T13:52:25.266Z,101866.02
2018-01-23T13:54:53.684Z,101862.74
2018-01-23T13:57:23.108Z,101859.19
2018-01-23T13:59:51.387Z,101866.08
2018-01-23T14:02:19.738Z,101862.62
2018-01-23T14:04:48.031Z,101860.85
2018-01-23T14:07:16.567Z,101866.60
2018-01-23T14:09:44.890Z,101862.67
2018-01-23T14:12:19.928Z,101862.33
2018-01-23T14:14:48.326Z,101864.34
2018-01-23T14:17:16.697Z,101860.78
2018-01-23T14:19:45.027Z,101857.97
2018-01-23T14:22:13.386Z,101857.25
2018-01-23T14:24:41.860Z,101860.22
2018-01-23T14:27:10.211Z,101859.33
2018-01-23T14:29:38.570Z,101855.38
2018-01-23T14:32:07.819Z,101864.40
2018-01-23T14:34:36.578Z,101861.18
2018-01-23T14:37:05.081Z,101866.65
2018-01-23T14:39:34.364Z,101864.34
2018-01-23T14:42:02.674Z,101854.80
2018-01-23T14:44:30.951Z,101849.89
2018-01-23T14:46:59.387Z,101851.51
2018-01-23T14:49:27.715Z,101857.16
2018-01-23T14:51:56.174Z,101860.13
2018-01-23T14:54:24.489Z,101860.84
2018-01-23T14:56:53.680Z,101860.80
2018-01-23T14:59:21.993Z,101863.67
2018-01-23T15:01:50.348Z,101863.92
2018-01-23T15:04:18.730Z,101869.21
2018-01-23T15:06:47.050Z,101864.62
2018-01-23T15:09:15.370Z,101864.66
2018-01-23T15:11:43.746Z,101858.56
2018-01-23T15:14:12.034Z,101865.77
2018-01-23T15:16:40.355Z,101859.49
2018-01-23T15:19:09.466Z,101873.08
2018-01-23T15:21:37.759Z,101879.19
2018-01-23T15:24:06.079Z,101869.33
2018-01-23T15:26:34.491Z,101870.52
2018-01-23T15:29:02.783Z,101874.55
2018-01-23T15:31:31.124Z,101861.59
2018-01-23T15:33:59.631Z,101860.00
2018-01-23T15:36:28.112Z,101862.84
2018-01-23T15:38:56.431Z,101867.86
2018-01-23T15:41:24.771Z,101863.00
2018-01-23T15:43:53.078Z,101864.41
2018-01-23T15:46:21.391Z,101867.55
2018-01-23T15:48:49.697Z,101871.77
2018-01-23T15:51:18.000Z,101865.79
2018-01-23T15:53:46.308Z,101858.70
2018-01-23T15:56:14.660Z,101862.36
2018-01-23T15:58:42.983Z,101857.61
2018-01-23T16:01:11.317Z,101859.38
2018-01-23T16:03:39.912Z,101856.24
2018-01-23T16:06:08.354Z,101853.64
2018-01-23T16:08:36.680Z,101857.03
2018-01-23T16:11:04.693Z,101848.05
2018-01-23T16:13:33.043Z,101848.89
2018-01-23T16:16:01.418Z,101853.55
2018-01-23T16:18:29.790Z,101842.73
2018-01-23T16:20:58.238Z,101842.82
2018-01-23T16:23:26.526Z,101836.55
2018-01-23T16:25:54.831Z,101846.85
2018-01-23T16:28:23.316Z,101836.83
2018-01-23T16:30:51.727Z,101835.41
2018-01-23T16:33:20.250Z,101835.30
2018-01-23T16:35:48.557Z,101832.02
2018-01-23T16:38:16.849Z,101839.33
2018-01-23T16:40:45.146Z,101833.81
2018-01-23T16:43:13.427Z,101833.75
2018-01-23T16:45:41.866Z,101835.67
2018-01-23T16:48:10.161Z,101833.86
2018-01-23T16:50:38.749Z,101835.16
2018-01-23T16:53:07.048Z,101841.70
2018-01-23T16:55:35.363Z,101840.08
2018-01-23T16:58:03.694Z,101835.73
2018-01-23T17:00:32.004Z,101833.65
2018-01-23T17:03:00.406Z,101841.84
2018-01-23T17:05:28.723Z,101835.10
2018-01-23T17:07:57.154Z,101840.12
2018-01-23T17:10:25.465Z,101835.27
2018-01-23T17:12:53.766Z,101824.61
2018-01-23T17:15:22.083Z,101824.30
2018-01-23T17:17:50.403Z,101826.64
2018-01-23T17:20:18.830Z,101825.38
2018-01-23T17:22:47.177Z,101828.22
2018-01-23T17:25:15.502Z,101826.84
2018-01-23T17:27:43.775Z,101828.47
2018-01-23T17:30:12.272Z,101819.84
2018-01-23T17:32:40.732Z,101814.69
2018-01-23T17:35:09.213Z,101824.02
2018-01-23T17:37:37.567Z,101821.04
2018-01-23T17:40:05.898Z,101822.18
2018-01-23T17:42:34.200Z,101810.86
2018-01-23T17:45:02.630Z,101814.57
2018-01-23T17:47:31.137Z,101816.08
2018-01-23T17:49:59.486Z,101813.61
2018-01-23T17:52:27.858Z,101817.33
2018-01-23T17:54:57.878Z,101809.53
2018-01-23T17:57:26.231Z,101811.00
2018-01-23T17:59:54.719Z,101806.82
2018-01-23T18:02:23.020Z,101802.48
2018-01-23T18:04:51.388Z,101801.70
2018-01-23T18:07:19.711Z,101800.45
2018-01-23T18:09:48.168Z,101791.91
2018-01-23T18:12:16.516Z,101792.77
2018-01-23T18:14:45.103Z,101788.59
2018-01-23T18:17:13.582Z,101782.59
2018-01-23T18:19:41.915Z,101780.92
2018-01-23T18:22:10.219Z,101775.17
2018-01-23T18:24:38.816Z,101769.15
2018-01-23T18:27:07.320Z,101767.36
2018-01-23T18:29:35.733Z,101764.23
2018-01-23T18:32:04.305Z,101760.37
2018-01-23T18:34:32.619Z,101764.55
2018-01-23T18:37:00.956Z,101767.95
2018-01-23T18:39:29.259Z,101763.41
2018-01-23T18:41:57.594Z,101765.56
2018-01-23T18:44:26.064Z,101762.36
2018-01-23T18:46:54.603Z,101754.53
2018-01-23T18:49:23.227Z,101759.64
2018-01-23T18:51:51.737Z,101757.59
2018-01-23T18:54:20.054Z,101759.92
2018-01-23T18:56:48.370Z,101761.30
2018-01-23T18:59:16.703Z,101760.61
2018-01-23T19:01:45.020Z,101754.64
2018-01-23T19:04:13.314Z,101753.16
2018-01-23T19:06:41.687Z,101746.03
2018-01-23T19:09:09.999Z,101740.91
2018-01-23T19:11:38.325Z,101729.73
2018-01-23T19:14:06.810Z,101724.55
2018-01-23T19:16:35.182Z,101726.26
2018-01-23T19:19:03.698Z,101727.03
2018-01-23T19:21:32.178Z,101724.70
2018-01-23T19:24:00.507Z,101725.02
2018-01-23T19:26:28.895Z,101724.73
2018-01-23T19:28:57.378Z,101720.71
2018-01-23T19:31:25.701Z,101720.63
2018-01-23T19:33:54.815Z,101711.53
2018-01-23T19:36:23.669Z,101712.53
2018-01-23T19:38:52.114Z,101707.87
2018-01-23T19:41:20.857Z,101708.13
2018-01-23T19:43:49.250Z,101713.09
2018-01-23T19:46:17.557Z,101709.42
2018-01-23T19:48:46.167Z,101709.73
2018-01-23T19:51:14.495Z,101701.32
2018-01-23T19:53:43.220Z,101704.73
2018-01-23T19:56:12.430Z,101693.69
2018-01-23T19:58:40.867Z,101696.43
2018-01-23T20:01:09.187Z,101694.73
2018-01-23T20:03:39.686Z,101690.44
2018-01-23T20:06:08.450Z,101691.96
2018-01-23T20:08:37.527Z,101692.88
2018-01-23T20:11:07.238Z,101693.73
2018-01-23T20:13:35.543Z,101686.02
2018-01-23T20:16:03.859Z,101685.59
2018-01-23T20:18:33.246Z,101689.03
2018-01-23T20:21:02.703Z,101687.92
2018-01-23T20:23:32.484Z,101684.34
2018-01-23T20:26:02.304Z,101674.00
2018-01-23T20:28:31.717Z,101680.61
2018-01-23T20:31:01.137Z,101679.48
2018-01-23T20:33:30.048Z,101673.41
2018-01-23T20:35:59.801Z,101675.59
2018-01-23T20:38:28.535Z,101673.45
2018-01-23T20:40:57.075Z,101665.14
2018-01-23T20:43:27.098Z,101670.05
2018-01-23T20:45:57.297Z,101658.98
2018-01-23T20:48:25.611Z,101658.09
2018-01-23T20:50:55.597Z,101649.66
2018-01-23T20:53:24.118Z,101641.73
2018-01-23T20:55:53.924Z,101639.42
2018-01-23T20:58:22.212Z,101638.86
2018-01-23T21:00:50.574Z,101636.70
2018-01-23T21:03:19.227Z,101634.14
2018-01-23T21:05:47.838Z,101633.73
2018-01-23T21:08:16.395Z,101634.91
2018-01-23T21:10:44.881Z,101628.70
2018-01-23T21:13:13.631Z,101628.09
2018-01-23T21:15:42.252Z,101628.89
2018-01-23T21:18:10.522Z,101630.41
2018-01-23T21:20:39.021Z,101627.80
2018-01-23T21:23:07.413Z,101623.48
2018-01-23T21:25:35.747Z,101623.27
2018-01-23T21:28:04.214Z,101623.72
2018-01-23T21:30:35.109Z,101619.41
2018-01-23T21:33:07.399Z,101614.45
2018-01-23T21:35:36.368Z,101606.93
2018-01-23T21:38:06.140Z,101615.28
2018-01-23T21:40:34.942Z,101610.71
2018-01-23T21:43:03.298Z,101610.30
2018-01-23T21:45:34.917Z,101602.66
2018-01-23T21:48:03.871Z,101604.73
2018-01-23T21:50:33.180Z,101592.61
2018-01-23T21:53:02.117Z,101593.09
2018-01-23T21:55:30.972Z,101594.31
2018-01-23T21:58:00.197Z,101592.38
2018-01-23T22:00:28.667Z,101585.27
2018-01-23T22:02:57.132Z,101577.19
2018-01-23T22:05:25.492Z,101583.31
2018-01-23T22:07:53.786Z,101588.45
2018-01-23T22:10:22.213Z,101591.84
2018-01-23T22:12:50.531Z,101587.92
2018-01-23T22:15:18.858Z,101592.52
2018-01-23T22:17:47.444Z,101595.24
2018-01-23T22:20:15.754Z,101584.73
2018-01-23T22:22:44.074Z,101580.45
2018-01-23T22:25:12.531Z,101583.71
2018-01-23T22:27:40.822Z,101574.78
2018-01-23T22:30:09.297Z,101570.34
2018-01-23T22:32:37.611Z,101565.09
2018-01-23T22:35:07.015Z,101558.97
2018-01-23T22:37:35.285Z,101551.28
2018-01-23T22:40:03.806Z,101556.25
2018-01-23T22:42:32.231Z,101553.64
2018-01-23T22:45:00.707Z,101547.48
2018-01-23T22:47:31.271Z,101555.87
2018-01-23T22:49:59.596Z,101552.43
2018-01-23T22:52:27.930Z,101548.42
2018-01-23T22:54:56.236Z,101534.13
2018-01-23T22:57:24.552Z,101531.22
2018-01-23T22:59:52.832Z,101530.39
2018-01-23T23:02:21.196Z,101522.75
2018-01-23T23:04:49.519Z,101516.70
2018-01-23T23:07:18.005Z,101521.17
2018-01-23T23:09:46.392Z,101529.86
2018-01-23T23:12:14.698Z,101536.31
2018-01-23T23:14:42.971Z,101539.86
2018-01-23T23:17:11.461Z,101530.55
2018-01-23T23:19:39.721Z,101532.81
2018-01-23T23:22:08.486Z,101527.18
2018-01-23T23:24:36.842Z,101531.35
2018-01-23T23:27:06.372Z,101526.65
2018-01-23T23:29:35.005Z,101524.39
2018-01-23T23:32:04.460Z,101529.48
2018-01-23T23:34:36.534Z,101519.61
2018-01-23T23:37:06.223Z,101517.98
2018-01-23T23:39:34.933Z,101519.76
2018-01-23T23:42:03.248Z,101502.03
2018-01-23T23:44:31.565Z,101505.75
2018-01-23T23:46:59.862Z,101514.93
2018-01-23T23:49:28.184Z,101510.41
2018-01-23T23:51:56.527Z,101501.20
2018-01-23T23:54:24.872Z,101506.88
2018-01-23T23:56:53.550Z,101503.39
2018-01-23T23:59:53.634Z,101509.97
